Time;durP1;ratioP1;P1;durP2;ratioP2;P2;SDS_P1;SDS_P2;PMS_P1;PMS_P2;Temp;Humidity;BMP_temperature;BMP_pressure;BME280_temperature;BME280_humidity;BME280_pressure;Samples;Min_cycle;Max_cycle;Signal;HPM_P1;HPM_P2
2021/07/28 00:00:51;;;;;;;10.90;7.37;;;19.30;99.90;;;;;;4953643;29;20285;-82
2021/07/28 00:03:16;;;;;;;11.83;7.40;;;19.30;99.90;;;;;;4953710;28;20689;-82
2021/07/28 00:05:42;;;;;;;10.70;7.20;;;19.40;99.90;;;;;;4954808;29;20297;-85
2021/07/28 00:08:08;;;;;;;11.40;8.03;;;19.30;99.90;;;;;;4958441;28;20670;-81
2021/07/28 00:10:33;;;;;;;18.97;7.63;;;19.30;99.90;;;;;;4954855;28;20231;-82
2021/07/28 00:12:59;;;;;;;13.93;7.60;;;19.30;99.90;;;;;;4954668;28;20217;-81
2021/07/28 00:15:25;;;;;;;11.20;7.13;;;19.40;99.90;;;;;;4937298;29;20295;-82
2021/07/28 00:17:53;;;;;;;14.30;8.30;;;19.40;99.90;;;;;;4938009;29;20273;-81
2021/07/28 00:23:12;;;;;;;11.17;8.10;;;19.50;99.90;;;;;;4936760;29;20183;-82
2021/07/28 00:23:16;;;;;;;12.83;8.03;;;19.40;99.90;;;;;;4960054;28;20198;-81
2021/07/28 00:25:47;;;;;;;10.57;8.07;;;19.20;99.90;;;;;;4962768;28;20212;-83
2021/07/28 00:28:13;;;;;;;11.20;8.50;;;19.20;99.90;;;;;;4959917;28;20186;-81
2021/07/28 00:30:41;;;;;;;14.27;9.03;;;19.20;99.90;;;;;;4954446;28;20195;-84
2021/07/28 00:33:07;;;;;;;12.63;8.57;;;19.20;99.90;;;;;;4936509;29;20257;-81
2021/07/28 00:35:32;;;;;;;12.77;8.33;;;19.20;99.90;;;;;;4953225;29;20191;-83
2021/07/28 00:38:05;;;;;;;13.97;8.23;;;19.30;99.90;;;;;;4936433;29;20182;-81
2021/07/28 00:40:32;;;;;;;13.60;8.93;;;19.20;99.90;;;;;;4960014;28;20183;-81
2021/07/28 00:43:16;;;;;;;12.37;8.10;;;19.20;99.90;;;;;;4950787;28;20252;-83
2021/07/28 00:45:43;;;;;;;12.70;9.00;;;19.30;99.90;;;;;;4949033;29;20508;-81
2021/07/28 00:48:10;;;;;;;15.20;8.93;;;19.20;99.90;;;;;;4954212;29;20201;-82
2021/07/28 00:50:38;;;;;;;14.60;9.43;;;19.10;99.90;;;;;;4953456;29;20578;-83
2021/07/28 00:53:04;;;;;;;13.77;9.20;;;19.10;99.90;;;;;;4953689;29;20198;-82
2021/07/28 00:55:31;;;;;;;15.40;9.73;;;19.10;99.90;;;;;;4952360;28;20562;-81
2021/07/28 00:57:59;;;;;;;13.33;9.03;;;19.10;99.90;;;;;;4954666;29;20189;-82
2021/07/28 01:00:25;;;;;;;12.20;9.10;;;19.10;99.90;;;;;;4953182;28;20231;-82
2021/07/28 01:02:51;;;;;;;15.83;9.80;;;19.20;99.90;;;;;;4953995;29;20223;-82
2021/07/28 01:05:16;;;;;;;15.07;9.67;;;19.10;99.90;;;;;;4954095;29;20188;-78
2021/07/28 01:07:42;;;;;;;12.50;8.97;;;19.10;99.90;;;;;;4953557;29;20683;-81
2021/07/28 01:10:08;;;;;;;14.80;8.83;;;19.10;99.90;;;;;;4936807;29;20636;-82
2021/07/28 01:12:41;;;;;;;13.60;8.67;;;19.20;99.90;;;;;;4936758;29;20202;-81
2021/07/28 01:15:07;;;;;;;16.13;9.10;;;19.20;99.90;;;;;;4949966;29;20758;-81
2021/07/28 01:17:32;;;;;;;13.40;8.53;;;19.00;99.90;;;;;;4953631;29;20182;-80
2021/07/28 01:20:04;;;;;;;14.00;8.80;;;18.90;99.90;;;;;;4936553;29;20183;-84
2021/07/28 01:22:30;;;;;;;13.23;8.83;;;19.00;99.90;;;;;;4950634;29;20309;-85
2021/07/28 01:24:56;;;;;;;12.87;9.10;;;19.10;99.90;;;;;;4954210;29;20179;-82
2021/07/28 01:27:24;;;;;;;17.00;9.83;;;19.30;99.90;;;;;;4953932;29;20197;-83
2021/07/28 01:29:49;;;;;;;14.03;8.67;;;19.20;99.90;;;;;;4953678;29;20646;-82
2021/07/28 01:32:15;;;;;;;12.63;9.07;;;19.20;99.90;;;;;;4953279;28;20268;-83
2021/07/28 01:34:41;;;;;;;15.40;9.60;;;19.20;99.90;;;;;;4953426;29;20524;-84
2021/07/28 01:37:09;;;;;;;13.90;9.83;;;19.30;99.90;;;;;;4953695;29;20190;-83
2021/07/28 01:39:35;;;;;;;13.77;9.00;;;19.40;99.90;;;;;;4946664;29;20553;-82
2021/07/28 01:42:01;;;;;;;13.20;8.73;;;19.40;99.90;;;;;;4953705;29;20211;-83
2021/07/28 01:44:27;;;;;;;11.67;9.40;;;19.30;99.90;;;;;;4953632;29;20297;-84
2021/07/28 01:46:53;;;;;;;13.90;9.13;;;19.30;99.90;;;;;;4936236;29;20271;-84
2021/07/28 01:49:19;;;;;;;11.23;8.47;;;19.20;99.90;;;;;;4953019;29;20274;-83
2021/07/28 01:51:45;;;;;;;11.73;9.00;;;19.40;99.90;;;;;;4951337;29;20243;-83
2021/07/28 01:54:10;;;;;;;12.27;9.07;;;19.30;99.90;;;;;;4952396;28;20194;-83
2021/07/28 01:56:42;;;;;;;16.53;9.80;;;19.30;99.90;;;;;;4939798;29;20186;-83
2021/07/28 01:59:12;;;;;;;15.00;9.50;;;19.10;99.90;;;;;;4956887;29;20187;-82
2021/07/28 02:01:38;;;;;;;12.10;8.73;;;19.10;99.90;;;;;;4941651;29;20222;-83
2021/07/28 02:04:03;;;;;;;16.07;9.17;;;19.10;99.90;;;;;;4956797;29;20187;-83
2021/07/28 02:06:29;;;;;;;14.07;9.50;;;19.10;99.90;;;;;;4957238;29;20275;-84
2021/07/28 02:08:54;;;;;;;16.07;9.50;;;19.10;99.90;;;;;;4939545;29;20666;-82
2021/07/28 02:11:20;;;;;;;13.30;9.73;;;19.20;99.90;;;;;;4955636;29;20227;-84
2021/07/28 02:13:46;;;;;;;15.83;9.47;;;19.30;99.90;;;;;;4956419;29;20198;-81
2021/07/28 02:16:11;;;;;;;16.67;9.53;;;19.30;99.90;;;;;;4940308;29;20255;-84
2021/07/28 02:18:37;;;;;;;13.57;9.00;;;19.30;99.90;;;;;;4945432;29;20215;-81
2021/07/28 02:21:04;;;;;;;14.67;8.83;;;19.40;99.90;;;;;;4956767;29;20187;-83
2021/07/28 02:23:31;;;;;;;13.37;9.47;;;19.30;99.90;;;;;;4956639;29;20191;-82
2021/07/28 02:25:56;;;;;;;14.67;8.80;;;19.30;99.90;;;;;;4955532;29;20184;-80
2021/07/28 02:28:22;;;;;;;15.93;9.47;;;19.30;99.90;;;;;;4956533;29;20691;-81
2021/07/28 02:30:47;;;;;;;16.70;8.80;;;19.40;99.90;;;;;;4956083;29;20187;-82
2021/07/28 02:33:13;;;;;;;11.93;8.80;;;19.50;99.90;;;;;;4954191;28;20243;-82
2021/07/28 02:35:39;;;;;;;13.80;8.83;;;19.50;99.90;;;;;;4955741;29;20187;-82
2021/07/28 02:38:04;;;;;;;14.27;8.57;;;19.50;99.90;;;;;;4955791;29;20263;-83
2021/07/28 02:40:30;;;;;;;15.30;9.47;;;19.50;99.90;;;;;;4955923;29;20183;-83
2021/07/28 02:42:55;;;;;;;12.33;9.00;;;19.50;99.90;;;;;;4955017;29;20227;-80
2021/07/28 02:45:21;;;;;;;15.00;9.00;;;19.30;99.90;;;;;;4937911;29;20194;-82
2021/07/28 02:47:46;;;;;;;14.83;9.63;;;19.30;99.90;;;;;;4938519;29;20333;-81
2021/07/28 02:50:13;;;;;;;18.57;9.73;;;19.20;99.90;;;;;;4941354;29;20190;-82
2021/07/28 02:52:38;;;;;;;13.77;8.87;;;19.30;99.90;;;;;;4938155;29;20191;-81
2021/07/28 02:55:06;;;;;;;24.43;9.90;;;19.40;99.90;;;;;;4955320;29;20198;-81
2021/07/28 02:57:33;;;;;;;16.53;9.10;;;19.40;99.90;;;;;;4955415;29;20175;-82
2021/07/28 02:59:59;;;;;;;14.03;9.60;;;19.50;99.90;;;;;;4955282;29;20189;-82
2021/07/28 03:02:24;;;;;;;13.40;9.50;;;19.50;99.90;;;;;;4937369;29;20695;-83
2021/07/28 03:04:50;;;;;;;15.10;8.90;;;19.60;99.90;;;;;;4942781;29;20658;-82
2021/07/28 03:07:15;;;;;;;13.77;9.20;;;19.70;99.90;;;;;;4954167;28;20239;-79
2021/07/28 03:09:41;;;;;;;14.13;9.13;;;19.60;99.90;;;;;;4954492;29;20301;-80
2021/07/28 03:12:07;;;;;;;18.30;8.27;;;19.50;99.90;;;;;;4940429;28;20198;-82
2021/07/28 03:14:33;;;;;;;11.97;8.53;;;19.50;99.90;;;;;;4953734;28;20187;-82
2021/07/28 03:16:58;;;;;;;10.53;7.90;;;19.30;99.90;;;;;;4961007;28;20381;-81
2021/07/28 03:19:24;;;;;;;14.90;8.60;;;19.30;99.90;;;;;;4955168;28;20190;-82
2021/07/28 03:21:50;;;;;;;17.20;9.27;;;19.30;99.90;;;;;;4940768;28;20688;-81
2021/07/28 03:24:17;;;;;;;14.27;8.47;;;19.30;99.90;;;;;;4955980;28;20231;-82
2021/07/28 03:26:43;;;;;;;14.87;8.53;;;19.30;99.90;;;;;;4959684;28;20195;-81
2021/07/28 03:29:08;;;;;;;13.03;8.43;;;19.30;99.90;;;;;;4969631;28;20193;-80
2021/07/28 03:31:34;;;;;;;15.37;7.97;;;19.10;99.90;;;;;;4940914;29;20300;-82
2021/07/28 03:33:59;;;;;;;12.97;8.13;;;19.10;99.90;;;;;;4960395;28;20668;-82
2021/07/28 03:36:25;;;;;;;17.33;8.00;;;19.10;99.90;;;;;;4956974;28;20179;-82
2021/07/28 03:38:50;;;;;;;13.57;7.70;;;19.10;99.90;;;;;;4959792;28;20260;-82
2021/07/28 03:41:16;;;;;;;12.13;7.87;;;19.10;99.90;;;;;;4957005;28;20285;-82
2021/07/28 03:43:42;;;;;;;15.70;7.53;;;19.10;99.90;;;;;;4958304;28;20199;-81
2021/07/28 03:46:07;;;;;;;8.60;6.37;;;19.10;99.90;;;;;;4964702;28;20204;-81
2021/07/28 03:48:33;;;;;;;10.50;6.90;;;19.10;99.90;;;;;;4959284;28;20225;-82
2021/07/28 03:50:59;;;;;;;13.30;6.70;;;19.10;99.90;;;;;;4954841;28;20191;-81
2021/07/28 03:53:25;;;;;;;10.87;6.23;;;19.10;99.90;;;;;;4960041;28;20210;-82
2021/07/28 03:55:51;;;;;;;13.37;6.77;;;19.10;99.90;;;;;;4962407;28;20221;-81
2021/07/28 03:58:16;;;;;;;14.70;6.17;;;18.90;99.90;;;;;;4940820;29;20664;-83
2021/07/28 04:00:42;;;;;;;9.93;6.43;;;18.80;99.90;;;;;;4936721;29;20216;-78
2021/07/28 04:03:07;;;;;;;9.73;6.20;;;18.80;99.90;;;;;;4955258;28;20322;-84
2021/07/28 04:05:33;;;;;;;11.40;6.07;;;18.70;99.90;;;;;;4957450;28;20687;-83
2021/07/28 04:07:59;;;;;;;7.90;5.60;;;18.60;99.90;;;;;;4955133;28;20289;-83
2021/07/28 04:10:25;;;;;;;6.00;4.80;;;18.60;99.90;;;;;;4955178;28;20194;-83
2021/07/28 04:12:50;;;;;;;6.87;4.70;;;18.50;99.90;;;;;;4954272;28;20204;-83
2021/07/28 04:15:16;;;;;;;10.97;5.60;;;18.50;99.90;;;;;;4954190;28;20202;-82
2021/07/28 04:17:42;;;;;;;7.37;4.80;;;18.50;99.90;;;;;;4937388;29;20277;-82
2021/07/28 04:20:08;;;;;;;11.97;5.20;;;18.60;99.90;;;;;;4937713;29;20638;-82
2021/07/28 04:22:33;;;;;;;9.23;5.43;;;18.60;99.90;;;;;;4954300;29;20232;-81
2021/07/28 04:25:01;;;;;;;10.07;4.20;;;18.70;99.90;;;;;;4954748;29;20244;-81
2021/07/28 04:27:29;;;;;;;7.27;4.27;;;18.60;99.90;;;;;;4955118;29;20196;-82
2021/07/28 04:29:56;;;;;;;8.13;4.80;;;18.40;99.90;;;;;;4955113;29;20205;-82
2021/07/28 04:32:21;;;;;;;10.27;4.63;;;18.40;99.90;;;;;;4954512;28;20244;-83
2021/07/28 04:34:47;;;;;;;8.17;4.07;;;18.40;99.90;;;;;;4956018;28;20229;-81
2021/07/28 04:37:13;;;;;;;10.63;4.53;;;18.40;99.90;;;;;;4964444;28;20197;-80
2021/07/28 04:39:38;;;;;;;9.73;4.80;;;18.40;99.90;;;;;;4961406;28;20202;-81
2021/07/28 04:42:04;;;;;;;12.53;5.03;;;18.40;99.90;;;;;;4955834;28;20241;-79
2021/07/28 04:44:30;;;;;;;12.17;5.80;;;18.40;99.90;;;;;;4959329;28;20193;-81
2021/07/28 04:46:56;;;;;;;14.17;5.40;;;18.40;99.90;;;;;;4973259;28;20256;-82
2021/07/28 04:49:22;;;;;;;9.67;5.47;;;18.50;99.90;;;;;;4960074;28;20183;-81
2021/07/28 04:51:48;;;;;;;9.77;6.07;;;18.50;99.90;;;;;;4955544;29;20185;-81
2021/07/28 04:54:14;;;;;;;8.60;6.00;;;18.40;99.90;;;;;;4937533;29;20194;-81
2021/07/28 04:56:39;;;;;;;10.83;5.43;;;18.40;99.90;;;;;;4955234;29;20184;-79
2021/07/28 04:59:05;;;;;;;13.03;6.00;;;18.30;99.90;;;;;;4955333;28;20627;-81
2021/07/28 05:01:30;;;;;;;9.37;5.23;;;18.40;99.90;;;;;;4954240;28;20214;-82
2021/07/28 05:03:56;;;;;;;10.67;5.67;;;18.40;99.90;;;;;;4952379;28;20192;-82
2021/07/28 05:06:22;;;;;;;12.00;5.17;;;18.30;99.90;;;;;;4961761;28;20697;-82
2021/07/28 05:08:47;;;;;;;15.60;5.77;;;18.30;99.90;;;;;;4965674;28;20564;-82
2021/07/28 10:44:22;;;;;;;5.50;2.00;;;21.60;99.90;;;;;;4954442;28;20300;-79
2021/07/28 10:46:56;;;;;;;4.47;1.90;;;21.90;99.90;;;;;;4956608;29;20199;-79
2021/07/28 10:49:37;;;;;;;4.80;2.27;;;22.00;99.90;;;;;;4956393;29;20180;-80
2021/07/28 10:52:13;;;;;;;4.40;2.17;;;22.00;99.90;;;;;;4938453;29;20227;-80
2021/07/28 10:54:52;;;;;;;3.83;2.13;;;22.40;99.90;;;;;;4932164;29;20201;-79
2021/07/28 10:57:37;;;;;;;5.93;1.97;;;22.70;99.30;;;;;;4955112;29;20551;-79
2021/07/28 11:00:02;;;;;;;4.90;2.10;;;22.60;99.20;;;;;;4956196;29;20549;-80
2021/07/28 11:03:11;;;;;;;5.10;2.00;;;22.70;99.10;;;;;;4938070;29;20227;-79
2021/07/28 11:05:42;;;;;;;4.17;2.30;;;22.80;99.10;;;;;;4931604;29;20218;-79
2021/07/28 11:08:19;;;;;;;5.03;1.90;;;22.90;98.90;;;;;;4938699;29;20274;-79
2021/07/28 11:10:45;;;;;;;6.17;2.17;;;23.10;98.80;;;;;;4955618;29;20271;-79
2021/07/28 11:13:11;;;;;;;7.03;2.03;;;23.20;98.40;;;;;;4938279;29;20288;-79
2021/07/28 11:15:39;;;;;;;3.17;2.03;;;23.20;98.60;;;;;;4938339;29;20194;-79
2021/07/28 11:18:05;;;;;;;5.53;1.80;;;23.40;98.60;;;;;;4938395;29;20191;-80
2021/07/28 11:20:32;;;;;;;9.07;2.07;;;23.70;98.40;;;;;;4938418;29;20274;-80
2021/07/28 11:23:17;;;;;;;6.60;1.80;;;23.60;97.90;;;;;;4935897;29;20231;-78
2021/07/28 11:25:43;;;;;;;4.80;2.13;;;23.70;97.90;;;;;;4964207;28;20195;-78
2021/07/28 11:28:08;;;;;;;3.30;2.00;;;23.80;97.40;;;;;;4954613;28;20195;-80
2021/07/28 11:30:34;;;;;;;5.83;2.17;;;23.50;97.50;;;;;;4939131;28;20575;-78
2021/07/28 11:33:29;;;;;;;3.10;2.03;;;23.40;97.80;;;;;;4957044;28;20187;-78
2021/07/28 11:35:56;;;;;;;4.50;1.97;;;23.20;97.60;;;;;;4940744;28;20568;-78
2021/07/28 11:38:36;;;;;;;4.43;1.80;;;22.60;98.40;;;;;;4957419;28;20623;-78
2021/07/28 11:41:04;;;;;;;7.70;2.90;;;22.30;99.20;;;;;;4956147;28;20258;-77
2021/07/28 11:43:30;;;;;;;5.67;3.23;;;21.50;99.90;;;;;;4957145;28;20225;-77
2021/07/28 11:46:01;;;;;;;9.60;3.73;;;20.00;99.90;;;;;;4972443;28;20604;-80
2021/07/28 11:48:34;;;;;;;6.57;3.77;;;19.30;99.90;;;;;;4974531;28;20270;-80
2021/07/28 11:51:03;;;;;;;7.27;4.83;;;19.10;99.90;;;;;;4957010;28;20266;-80
2021/07/28 11:53:30;;;;;;;10.40;4.73;;;19.10;99.90;;;;;;4974704;28;20186;-77
2021/07/28 11:56:08;;;;;;;8.17;4.83;;;19.30;99.90;;;;;;4957011;28;20175;-77
2021/07/28 11:58:35;;;;;;;7.63;4.40;;;19.60;99.90;;;;;;4950325;28;20190;-77
2021/07/28 12:01:20;;;;;;;6.27;4.80;;;20.00;99.90;;;;;;4956953;28;20187;-79
2021/07/28 12:04:10;;;;;;;5.27;3.73;;;20.30;99.90;;;;;;4950952;28;20195;-77
2021/07/28 12:06:40;;;;;;;5.20;2.77;;;20.70;99.90;;;;;;4973912;28;20265;-77
2021/07/28 12:09:20;;;;;;;7.87;2.30;;;21.20;99.90;;;;;;4956912;28;20234;-77
2021/07/28 12:12:01;;;;;;;6.60;2.20;;;22.20;99.90;;;;;;4956725;28;20194;-77
2021/07/28 12:14:41;;;;;;;2.93;1.50;;;22.60;99.90;;;;;;4956796;28;20193;-78
2021/07/28 12:17:27;;;;;;;3.67;1.90;;;23.40;99.90;;;;;;4984132;28;20213;-78
2021/07/28 12:20:04;;;;;;;6.97;1.77;;;24.10;99.90;;;;;;4956244;28;20658;-78
2021/07/28 12:22:35;;;;;;;6.57;1.80;;;24.30;99.50;;;;;;4956127;28;20217;-78
2021/07/28 12:25:20;;;;;;;2.60;1.73;;;23.70;99.60;;;;;;4956407;28;20240;-78
2021/07/28 12:27:55;;;;;;;6.20;2.40;;;23.00;99.90;;;;;;4956243;28;20185;-78
2021/07/28 12:30:27;;;;;;;3.97;2.10;;;22.70;99.90;;;;;;4956438;28;20197;-79
2021/07/28 12:33:06;;;;;;;6.60;2.87;;;20.60;99.90;;;;;;4973772;28;20193;-78
2021/07/28 12:35:46;;;;;;;3.20;2.53;;;19.50;99.90;;;;;;4956554;28;20227;-78
2021/07/28 12:38:20;;;;;;;7.70;3.03;;;19.00;99.90;;;;;;4988344;28;20620;-79
2021/07/28 12:40:56;;;;;;;3.47;2.80;;;18.70;99.90;;;;;;4973419;28;20196;-80
2021/07/28 12:43:27;;;;;;;6.77;3.37;;;18.60;99.90;;;;;;4951776;29;20302;-80
2021/07/28 12:45:55;;;;;;;6.47;3.20;;;18.40;99.90;;;;;;4957472;28;20194;-78
2021/07/28 12:48:21;;;;;;;7.43;3.10;;;18.30;99.90;;;;;;4954900;28;20185;-78
2021/07/28 12:50:47;;;;;;;4.10;2.93;;;18.40;99.90;;;;;;4962268;28;20185;-77
2021/07/28 12:53:12;;;;;;;4.23;2.40;;;18.40;99.90;;;;;;4954532;28;20248;-80
2021/07/28 12:55:38;;;;;;;2.87;2.10;;;18.50;99.90;;;;;;4947986;28;20275;-78
2021/07/28 12:58:04;;;;;;;2.77;1.97;;;18.50;99.90;;;;;;4962778;28;20202;-77
2021/07/28 13:00:30;;;;;;;4.93;2.13;;;18.60;99.90;;;;;;4944152;29;20184;-77
2021/07/28 13:02:57;;;;;;;2.90;2.20;;;18.60;99.90;;;;;;4937432;28;20211;-80
2021/07/28 13:05:25;;;;;;;5.80;2.07;;;18.70;99.90;;;;;;4945577;28;20565;-78
2021/07/28 13:07:58;;;;;;;5.73;2.00;;;19.00;99.90;;;;;;4971933;28;20212;-78
2021/07/28 13:10:23;;;;;;;3.10;1.57;;;19.40;99.90;;;;;;4940567;28;20185;-78
2021/07/28 13:12:49;;;;;;;2.93;1.80;;;20.10;99.90;;;;;;4951450;29;20274;-78
2021/07/28 13:15:15;;;;;;;6.77;1.60;;;20.50;99.90;;;;;;4962010;28;20269;-81
2021/07/28 13:17:41;;;;;;;5.27;1.77;;;20.90;99.90;;;;;;4947357;28;20203;-78
2021/07/28 13:20:07;;;;;;;5.43;1.73;;;21.20;99.90;;;;;;4964539;28;20651;-78
2021/07/28 13:22:33;;;;;;;2.87;1.70;;;21.50;99.90;;;;;;4952379;28;20207;-78
2021/07/28 13:24:58;;;;;;;4.80;1.60;;;21.80;99.90;;;;;;4939267;28;20191;-78
2021/07/28 13:27:24;;;;;;;3.97;1.70;;;22.30;99.90;;;;;;4951143;28;20252;-78
2021/07/28 13:29:49;;;;;;;5.40;2.20;;;22.70;99.90;;;;;;4963082;28;20260;-78
2021/07/28 13:32:15;;;;;;;4.30;1.60;;;23.30;99.90;;;;;;4958961;28;20233;-78
2021/07/28 13:34:41;;;;;;;3.90;1.80;;;24.40;99.90;;;;;;4952707;28;20186;-78
2021/07/28 13:37:06;;;;;;;4.90;1.70;;;25.60;98.40;;;;;;4964316;28;20188;-78
2021/07/28 13:39:35;;;;;;;5.83;1.50;;;26.20;96.30;;;;;;4948348;28;20602;-78
2021/07/28 13:42:01;;;;;;;6.93;1.73;;;26.70;95.00;;;;;;4948274;28;20235;-78
2021/07/28 13:44:26;;;;;;;3.90;1.60;;;27.00;94.40;;;;;;4969760;28;20198;-78
2021/07/28 13:46:52;;;;;;;3.67;1.60;;;26.60;93.60;;;;;;4955776;28;20193;-78
2021/07/28 13:49:18;;;;;;;5.03;1.80;;;26.60;94.60;;;;;;4972638;28;20198;-78
2021/07/28 13:51:43;;;;;;;3.57;1.47;;;27.20;94.40;;;;;;4975556;28;20191;-78
2021/07/28 13:54:09;;;;;;;5.53;1.33;;;27.70;92.20;;;;;;4976210;28;20264;-78
2021/07/28 13:56:34;;;;;;;3.83;2.20;;;27.70;91.90;;;;;;4959652;28;20193;-78
2021/07/28 13:59:00;;;;;;;4.23;1.80;;;27.30;91.70;;;;;;4976815;28;20561;-78
2021/07/28 14:01:25;;;;;;;5.30;1.90;;;27.40;91.70;;;;;;4958759;28;20191;-78
2021/07/28 14:03:51;;;;;;;5.40;1.97;;;27.80;91.00;;;;;;4959257;28;20281;-78
2021/07/28 14:06:17;;;;;;;2.63;1.80;;;27.70;90.20;;;;;;4975899;28;20200;-78
2021/07/28 14:08:42;;;;;;;4.63;1.63;;;27.80;90.10;;;;;;4976895;28;20225;-78
2021/07/28 14:11:08;;;;;;;5.30;1.80;;;28.00;89.90;;;;;;4976332;28;20698;-78
2021/07/28 14:13:35;;;;;;;3.40;1.80;;;27.40;89.90;;;;;;4976189;28;20616;-78
2021/07/28 14:16:01;;;;;;;3.33;1.83;;;26.50;90.60;;;;;;4976610;28;20249;-79
2021/07/28 14:18:26;;;;;;;3.97;1.60;;;26.80;90.90;;;;;;4958691;28;20188;-78
2021/07/28 14:20:52;;;;;;;3.10;1.57;;;27.40;90.20;;;;;;4976212;28;20179;-78
2021/07/28 14:23:18;;;;;;;3.67;1.50;;;28.10;89.70;;;;;;4958711;28;20233;-78
2021/07/28 14:25:44;;;;;;;3.57;1.63;;;28.40;87.80;;;;;;4976058;28;20552;-78
2021/07/28 14:28:09;;;;;;;3.90;1.73;;;28.70;85.80;;;;;;4958998;28;20466;-78
2021/07/28 14:30:35;;;;;;;6.40;1.77;;;28.80;84.30;;;;;;4957844;28;20555;-78
2021/07/28 14:33:00;;;;;;;2.30;1.40;;;28.50;83.10;;;;;;4951330;28;20317;-78
2021/07/28 14:35:26;;;;;;;3.60;1.27;;;28.70;83.40;;;;;;4975706;28;20187;-78
2021/07/28 14:37:51;;;;;;;3.77;1.40;;;28.80;83.40;;;;;;4975680;28;20540;-78
2021/07/28 14:40:17;;;;;;;2.47;1.50;;;28.10;83.20;;;;;;4975861;28;20199;-79
2021/07/28 14:42:43;;;;;;;3.13;1.80;;;27.50;83.90;;;;;;4976525;28;20225;-78
2021/07/28 14:45:09;;;;;;;3.47;1.73;;;27.00;84.80;;;;;;4958556;28;20182;-78
2021/07/28 14:47:35;;;;;;;3.70;1.73;;;27.10;82.30;;;;;;4975907;28;20269;-78
2021/07/28 14:50:00;;;;;;;2.90;1.50;;;27.30;81.70;;;;;;4975771;28;20212;-79
2021/07/28 14:52:26;;;;;;;2.37;1.40;;;27.10;82.00;;;;;;4975358;28;20183;-78
2021/07/28 14:54:51;;;;;;;3.57;1.70;;;26.20;83.60;;;;;;4976031;28;20184;-78
2021/07/28 14:57:19;;;;;;;3.30;1.40;;;25.60;86.30;;;;;;4975420;28;20171;-77
2021/07/28 14:59:45;;;;;;;3.97;1.40;;;25.60;86.30;;;;;;4958187;28;20594;-78
2021/07/28 15:02:15;;;;;;;3.37;1.57;;;25.40;87.10;;;;;;4957899;28;20301;-78
2021/07/28 15:04:41;;;;;;;2.87;1.50;;;25.30;87.90;;;;;;4955578;28;20197;-78
2021/07/28 15:07:06;;;;;;;2.67;1.50;;;25.20;89.40;;;;;;4975558;28;20221;-78
2021/07/28 15:09:32;;;;;;;5.73;1.77;;;25.30;89.40;;;;;;4975302;28;20206;-78
2021/07/28 15:11:58;;;;;;;3.97;2.00;;;25.20;90.00;;;;;;4957659;28;20233;-78
2021/07/28 15:14:23;;;;;;;5.73;1.60;;;25.70;89.40;;;;;;4957866;28;20217;-78
2021/07/28 15:16:49;;;;;;;6.43;2.20;;;26.10;89.10;;;;;;4974914;28;20196;-78
2021/07/28 15:19:16;;;;;;;4.93;2.00;;;26.60;87.60;;;;;;4975400;28;20270;-78
2021/07/28 15:21:47;;;;;;;3.03;1.60;;;26.10;88.10;;;;;;4975027;28;20651;-78
2021/07/28 15:24:13;;;;;;;4.80;1.80;;;25.40;89.40;;;;;;4950681;28;20202;-78
2021/07/28 15:26:41;;;;;;;3.17;1.90;;;25.00;90.00;;;;;;4975077;28;20202;-78
2021/07/28 15:29:07;;;;;;;2.63;1.67;;;25.10;89.10;;;;;;4974777;28;20200;-78
2021/07/28 15:31:33;;;;;;;3.17;1.70;;;24.90;90.00;;;;;;4974600;28;20206;-78
2021/07/28 15:34:02;;;;;;;4.10;1.70;;;24.90;89.70;;;;;;4974531;28;20192;-78
2021/07/28 15:36:28;;;;;;;3.60;1.80;;;24.90;89.70;;;;;;4975164;28;20245;-78
2021/07/28 15:39:03;;;;;;;2.57;1.53;;;25.10;90.20;;;;;;4957435;28;20277;-78
2021/07/28 15:41:30;;;;;;;5.13;1.93;;;25.60;89.30;;;;;;4950972;28;20602;-78
2021/07/28 15:43:55;;;;;;;3.63;2.17;;;25.40;89.30;;;;;;4970018;28;20207;-78
2021/07/28 15:46:21;;;;;;;5.73;2.13;;;24.90;90.10;;;;;;4940222;29;20551;-78
2021/07/28 15:48:47;;;;;;;3.20;1.70;;;24.60;91.00;;;;;;4960876;28;20557;-78
2021/07/28 15:51:13;;;;;;;5.20;1.90;;;25.00;90.70;;;;;;4956846;28;20202;-78
2021/07/28 15:53:38;;;;;;;5.33;1.97;;;25.30;90.60;;;;;;4938679;29;20195;-78
2021/07/28 15:56:04;;;;;;;5.40;2.10;;;24.90;90.20;;;;;;4949284;28;20187;-78
2021/07/28 15:58:29;;;;;;;5.70;1.63;;;24.40;90.80;;;;;;4967156;28;20622;-78
2021/07/28 16:00:55;;;;;;;6.00;2.30;;;24.10;91.10;;;;;;4961615;28;20644;-78
2021/07/28 16:03:21;;;;;;;4.80;2.20;;;23.70;91.90;;;;;;4956416;28;20214;-78
2021/07/28 16:05:46;;;;;;;6.03;2.10;;;23.70;91.90;;;;;;4940889;29;20647;-78
2021/07/28 16:08:12;;;;;;;4.03;2.00;;;23.80;92.00;;;;;;4969109;28;20193;-78
2021/07/28 16:10:38;;;;;;;7.03;2.23;;;23.80;91.80;;;;;;4945089;29;20670;-78
2021/07/28 16:13:03;;;;;;;3.43;1.77;;;23.80;91.30;;;;;;4956419;28;20537;-78
2021/07/28 16:15:33;;;;;;;2.87;1.87;;;23.70;91.00;;;;;;4958695;28;20191;-78
2021/07/28 16:18:20;;;;;;;3.13;1.70;;;23.50;91.10;;;;;;4939100;29;20223;-78
2021/07/28 16:20:46;;;;;;;3.53;1.93;;;23.20;91.60;;;;;;4936437;28;20197;-78
2021/07/28 16:23:25;;;;;;;5.20;2.10;;;23.20;91.70;;;;;;4967063;28;20268;-78
2021/07/28 16:25:51;;;;;;;2.87;1.87;;;23.10;91.80;;;;;;4943267;29;20241;-77
2021/07/28 16:28:19;;;;;;;4.70;2.07;;;23.30;91.70;;;;;;4939844;28;20579;-78
2021/07/28 16:30:46;;;;;;;2.93;1.67;;;23.60;91.30;;;;;;4970959;28;20229;-78
2021/07/28 16:33:12;;;;;;;3.47;1.87;;;23.80;90.50;;;;;;4962564;28;20265;-78
2021/07/28 16:35:40;;;;;;;5.43;2.17;;;24.40;89.20;;;;;;4960724;28;20558;-78
2021/07/28 16:38:06;;;;;;;3.30;1.30;;;25.20;87.30;;;;;;4940955;29;20649;-78
2021/07/28 16:40:32;;;;;;;3.10;1.40;;;25.70;83.00;;;;;;4939860;28;20190;-78
2021/07/28 16:42:58;;;;;;;5.83;1.80;;;26.30;83.00;;;;;;4948352;29;20576;-78
2021/07/28 16:45:24;;;;;;;3.10;1.50;;;26.70;81.50;;;;;;4956005;28;20345;-78
2021/07/28 16:47:51;;;;;;;2.40;1.67;;;27.10;80.40;;;;;;4970022;28;20218;-78
2021/07/28 16:50:17;;;;;;;2.30;1.53;;;26.80;80.10;;;;;;4949852;28;20185;-78
2021/07/28 16:52:44;;;;;;;2.17;1.50;;;26.80;80.60;;;;;;4944697;28;20753;-78
2021/07/28 16:55:10;;;;;;;5.33;1.80;;;27.00;80.70;;;;;;4939828;29;20221;-78
2021/07/28 16:57:36;;;;;;;3.90;1.80;;;27.40;79.90;;;;;;4936997;28;20223;-78
2021/07/28 17:00:02;;;;;;;2.10;1.47;;;27.20;79.70;;;;;;4960363;28;20217;-78
2021/07/28 17:02:28;;;;;;;2.40;1.57;;;26.90;79.80;;;;;;4951500;28;20255;-78
2021/07/28 17:04:54;;;;;;;4.43;1.70;;;26.90;80.20;;;;;;4954969;28;20188;-78
2021/07/28 17:07:19;;;;;;;3.53;1.80;;;26.70;80.10;;;;;;4941622;29;20226;-78
2021/07/28 17:09:45;;;;;;;4.17;1.70;;;26.10;80.70;;;;;;4954420;28;20205;-78
2021/07/28 17:12:11;;;;;;;3.27;1.47;;;25.70;80.70;;;;;;4959327;28;20201;-78
2021/07/28 17:14:37;;;;;;;1.73;1.43;;;25.90;81.20;;;;;;4955040;28;20190;-78
2021/07/28 17:17:04;;;;;;;1.77;1.37;;;26.20;79.90;;;;;;4958327;28;20189;-78
2021/07/28 17:19:29;;;;;;;4.90;1.60;;;26.30;79.90;;;;;;4964348;28;20193;-78
2021/07/28 17:21:55;;;;;;;5.00;2.23;;;26.10;79.60;;;;;;4962241;28;20216;-79
2021/07/28 17:24:21;;;;;;;3.40;1.80;;;26.10;80.50;;;;;;4964155;28;20202;-78
2021/07/28 17:26:48;;;;;;;4.00;1.80;;;26.10;80.10;;;;;;4961898;28;20195;-78
2021/07/28 17:29:13;;;;;;;2.20;1.80;;;25.60;81.40;;;;;;4966993;28;20689;-78
2021/07/28 17:31:39;;;;;;;2.97;1.73;;;25.40;82.30;;;;;;4959205;28;20210;-78
2021/07/28 17:34:06;;;;;;;4.13;1.70;;;25.30;83.10;;;;;;4963959;28;20186;-78
2021/07/28 17:36:31;;;;;;;2.40;1.60;;;25.20;83.10;;;;;;4936139;28;20285;-78
2021/07/28 17:38:57;;;;;;;2.77;1.30;;;25.10;83.40;;;;;;4966489;28;20626;-78
2021/07/28 17:41:23;;;;;;;2.33;1.27;;;25.30;83.00;;;;;;4955884;28;20194;-78
2021/07/28 17:43:49;;;;;;;2.47;1.50;;;25.30;82.40;;;;;;4974266;28;20305;-80
2021/07/28 17:46:15;;;;;;;2.77;1.60;;;24.90;83.80;;;;;;4972358;28;20186;-78
2021/07/28 17:48:41;;;;;;;3.20;1.80;;;24.60;84.60;;;;;;4990209;28;20190;-78
2021/07/28 17:51:09;;;;;;;4.63;1.93;;;24.30;85.10;;;;;;4969352;28;20177;-78
2021/07/28 17:53:34;;;;;;;5.87;2.00;;;24.30;85.60;;;;;;4970106;28;20551;-78
2021/07/28 17:56:00;;;;;;;4.17;2.00;;;24.20;86.00;;;;;;4982931;28;20191;-78
2021/07/28 17:58:25;;;;;;;3.57;1.80;;;24.10;86.00;;;;;;4986745;28;20209;-78
2021/07/28 18:00:51;;;;;;;2.57;1.60;;;23.90;86.80;;;;;;4987739;28;20198;-77
2021/07/28 18:03:35;;;;;;;5.47;1.90;;;23.90;86.90;;;;;;4960887;28;20682;-77
2021/07/28 18:06:27;;;;;;;4.20;1.80;;;23.80;87.40;;;;;;4970317;28;20182;-78
2021/07/28 18:08:53;;;;;;;3.40;2.20;;;23.40;88.20;;;;;;4952652;28;20642;-78
2021/07/28 18:11:19;;;;;;;3.87;1.60;;;23.30;88.80;;;;;;4981829;28;20274;-84
2021/07/28 18:13:45;;;;;;;3.33;1.83;;;23.30;89.00;;;;;;4957720;28;20654;-81
2021/07/28 18:16:11;;;;;;;3.83;1.67;;;23.20;89.50;;;;;;4955924;28;20515;-81
2021/07/28 18:18:38;;;;;;;3.23;1.90;;;23.10;90.30;;;;;;4978834;28;20185;-81